Airfield :
LOGIN :

Register | Disclaimer

   EN    FR    IT 

 










Legend :    VFR   Marginal VFR   IFR   Intensive IFR   Very Intensive IFR
Visi :
Ceiling :
>= 8 km
>= 3000ft
5 to 8 km
1000 to 3000 ft
1500m to 5 km
500 to 1000 ft
800 to 1500m
200 to 500 ft
< 800m
< 200 ft
Symbols :   Thunderstorms  Fog  Heavy snow  Heavy precipitations  Wind > 20 kt
SIGMETs :     Misc.  Thunderstorms  Icing  Turbulence  Mountain Waves  Volcanic Ashes






- Airport Elevation : 183 ft
- IATA code : HAJ


EDDV - Hanover/Langenhagen Int.

CURRENT METAR :
  • 121320Z 18008KT 9999 SCT020 BKN040 05/02 Q0999 NOSIG

EXPIRED METARs :
  • 121250Z 19008KT 150V220 9999 SCT020 BKN047 05/02 Q1000 NOSIG
  • 121220Z 20008KT 160V220 9999 SCT019 BKN047 05/03 Q1000 NOSIG
  • 121150Z 19007KT 9999 SCT019 BKN046 05/02 Q1000 NOSIG
  • 121120Z 20008KT 170V230 9999 SCT017 BKN046 05/03 Q1000 NOSIG
  • 121050Z 20008KT 160V230 9999 SCT017 BKN042 05/02 Q1001 NOSIG

TAF TAF EDDV
Valid from the 12 at 12:00 until the 13 at 12:00 UTC


121100Z 1212/1312 22008KT 9999 BKN030
BECMG 1216/1218 16008KT
BECMG 1222/1224 13013KT
TEMPO 1303/1312 14015G25KT
BECMG 1305/1307 BKN014
TEMPO 1307/1312 3500 -RASN BKN008



MET'MAP, your aeronautical weather chart ! - Copyright ORBIFLY December 2007 - Disclaimer

ORBIFLY MET'MAP TEAM :

Programming & Development : Alexandra Zaïnal
Concept & original design : Baudouin d'Aumeries
Assistance for programming : Marc-Olivier Méhu
Technical & hardware support : Manuel Goepfert

Contact : metmap@orbifly.com




SOURCES & CREDITS :

   NOAA